Etusivu
METAR-TAF:

METAR-TAF

Lentoasemat :

Paraguaná, Venezuela

Leveyspiiri: 11-47N, Pituuspiiri: 070-09W, korkeus merenpinnasta: 23 m

METAR: puuttuu

Aika: 13:19 (17:19 UTC)

Sääennuste

Tämä raportti tehtiin 7 tuntia ja 19 minuuttia sitten, kello 10.00 UTC
Ennuste voimassa 13. päivästä klo 12 UTC - 14. päivään klo 12 UTC
Tuuli 9 kn kaakosta
Näkyvyys 10 km tai enemmän
Hajanaisia pilviä 1600 ft:n korkeudessa
Hajonneita pilviä 10000 ft:n korkeudessa
Ajoittain
13. päivästä klo 14 UTC - 13. päivään klo 16 UTC
Tuuli 5 kn idästä
Näkyvyys 10 km tai enemmän
Hajanaisia pilviä 1300 ft:n korkeudessa
Hajanaisia pilviä 7000 ft:n korkeudessa

TAF: SVJC 131000Z 1312/1412 14009KT 9999 SCT016 BKN100 TX30/1319Z TN25/1307Z TEMPO 1314/1316 09005KT 9999 SCT013 SCT070

Säähavainnot ja -ennusteet yli 4000 lentoasemalta (METAR- ja TAF-raportit).

Käytössä olevat sääasemat on merkitty karttaan keltaisilla ja punaisilla pisteillä.

Aseta hiiri pisteen päälle nähdäksesi sääaseman nimen.

Klikkaa sitten nähdäksesi säähavainnot ja -ennusteet.

Kartan vaihtaminen: klikkaa mustalla rastilla varustettuja vihreitä pisteitä, niin voit zoomata sisään; viivalla varustettua vihreää pistettä, niin voit zoomata ulos tai vihreitä nuolia, niin pääset viereisille kartoille.


METAR-TAF: